createdAt,value
2023-06-05T00:00:48.583Z,12.24
2023-06-05T00:03:15.156Z,12.22
2023-06-05T00:05:41.952Z,12.21
2023-06-05T00:08:10.176Z,12.20
2023-06-05T00:10:36.615Z,12.19
2023-06-05T00:13:03.132Z,12.16
2023-06-05T00:15:29.777Z,12.10
2023-06-05T00:17:56.436Z,12.11
2023-06-05T00:20:22.968Z,12.11
2023-06-05T00:22:49.967Z,12.05
2023-06-05T00:25:16.588Z,12.02
2023-06-05T00:27:43.128Z,11.99
2023-06-05T00:30:10.983Z,11.96
2023-06-05T00:32:37.889Z,11.91
2023-06-05T00:35:04.827Z,11.90
2023-06-05T00:37:31.359Z,11.86
2023-06-05T00:39:57.822Z,11.84
2023-06-05T00:42:24.215Z,11.81
2023-06-05T00:44:50.601Z,11.79
2023-06-05T00:47:17.082Z,11.71
2023-06-05T00:49:44.029Z,11.70
2023-06-05T00:52:11.196Z,11.67
2023-06-05T00:54:37.969Z,11.68
2023-06-05T00:57:04.871Z,11.64
2023-06-05T00:59:33.171Z,11.61
2023-06-05T01:02:00.439Z,11.57
2023-06-05T01:04:28.172Z,11.54
2023-06-05T01:06:54.621Z,11.54
2023-06-05T01:09:21.112Z,11.53
2023-06-05T01:11:50.438Z,11.49
2023-06-05T01:14:21.536Z,11.46
2023-06-05T01:16:52.094Z,11.43
2023-06-05T01:19:18.719Z,11.40
2023-06-05T01:21:45.197Z,11.38
2023-06-05T01:24:14.345Z,11.36
2023-06-05T01:27:02.345Z,11.35
2023-06-05T01:29:37.202Z,11.33
2023-06-05T01:32:12.733Z,11.28
2023-06-05T01:34:44.876Z,11.26
2023-06-05T01:37:15.393Z,11.24
2023-06-05T01:39:44.616Z,11.20
2023-06-05T01:42:12.292Z,11.19
2023-06-05T01:44:39.628Z,11.16
2023-06-05T01:47:06.813Z,11.11
2023-06-05T01:49:33.277Z,11.08
2023-06-05T01:51:59.704Z,11.08
2023-06-05T01:54:27.386Z,11.08
2023-06-05T01:56:56.665Z,11.05
2023-06-05T01:59:23.277Z,11.00
2023-06-05T02:01:50.151Z,10.97
2023-06-05T02:04:20.029Z,10.94
2023-06-05T02:06:46.768Z,10.92
2023-06-05T02:09:13.885Z,10.89
2023-06-05T02:11:43.452Z,10.88
2023-06-05T02:14:13.394Z,10.87
2023-06-05T02:16:41.933Z,10.86
2023-06-05T02:19:08.844Z,10.82
2023-06-05T02:21:36.358Z,10.79
2023-06-05T02:24:06.319Z,10.78
2023-06-05T02:26:32.818Z,10.79
2023-06-05T02:28:59.460Z,10.74
2023-06-05T02:31:26.965Z,10.69
2023-06-05T02:33:55.100Z,10.67
2023-06-05T02:36:22.127Z,10.65
2023-06-05T02:38:52.016Z,10.62
2023-06-05T02:41:19.089Z,10.60
2023-06-05T02:43:46.050Z,10.52
2023-06-05T02:46:12.949Z,10.48
2023-06-05T02:48:39.447Z,10.47
2023-06-05T02:51:07.761Z,10.44
2023-06-05T02:53:34.469Z,10.42
2023-06-05T02:56:02.735Z,10.43
2023-06-05T02:58:29.681Z,10.38
2023-06-05T03:01:03.025Z,10.35
2023-06-05T03:03:33.333Z,10.33
2023-06-05T03:06:05.231Z,10.32
2023-06-05T03:08:33.906Z,10.28
2023-06-05T03:11:05.025Z,10.30
2023-06-05T03:13:33.368Z,10.30
2023-06-05T03:16:02.102Z,10.25
2023-06-05T03:18:29.555Z,10.24
2023-06-05T03:20:57.139Z,10.22
2023-06-05T03:23:28.803Z,10.22
2023-06-05T03:25:55.793Z,10.21
2023-06-05T03:28:24.101Z,10.18
2023-06-05T03:30:50.793Z,10.17
2023-06-05T03:33:18.620Z,10.15
2023-06-05T03:35:48.177Z,10.11
2023-06-05T03:38:15.126Z,10.11
2023-06-05T03:40:42.419Z,10.12
2023-06-05T03:43:09.062Z,10.13
2023-06-05T03:45:36.887Z,10.13
2023-06-05T03:48:03.843Z,10.13
2023-06-05T03:50:31.598Z,10.17
2023-06-05T03:53:03.410Z,10.19
2023-06-05T03:55:45.263Z,10.19
2023-06-05T03:58:15.685Z,10.18
2023-06-05T04:00:46.077Z,10.18
2023-06-05T04:03:13.569Z,10.19
2023-06-05T04:05:40.994Z,10.19
2023-06-05T04:08:10.326Z,10.22
2023-06-05T04:10:37.427Z,10.23
2023-06-05T04:13:07.166Z,10.24
2023-06-05T04:15:34.728Z,10.25
2023-06-05T04:18:01.209Z,10.27
2023-06-05T04:20:27.782Z,10.24
2023-06-05T04:22:54.231Z,10.27
2023-06-05T04:25:20.757Z,10.31
2023-06-05T04:27:51.344Z,10.33
2023-06-05T04:30:18.465Z,10.36
2023-06-05T04:32:55.462Z,10.34
2023-06-05T04:35:23.047Z,10.37
2023-06-05T04:37:51.252Z,10.39
2023-06-05T04:40:19.176Z,10.43
2023-06-05T04:42:45.871Z,10.46
2023-06-05T04:45:12.287Z,10.50
2023-06-05T04:47:38.862Z,10.54
2023-06-05T04:50:06.556Z,10.59
2023-06-05T04:52:34.152Z,10.61
2023-06-05T04:55:02.471Z,10.65
2023-06-05T04:57:30.158Z,10.75
2023-06-05T05:00:00.197Z,10.79
2023-06-05T05:02:27.399Z,10.81
2023-06-05T05:04:53.896Z,10.84
2023-06-05T05:07:20.381Z,10.92
2023-06-05T05:09:47.184Z,11.21
2023-06-05T05:12:13.593Z,11.76
2023-06-05T05:14:41.237Z,11.77
2023-06-05T05:17:07.776Z,11.93
2023-06-05T05:19:34.323Z,11.91
2023-06-05T05:22:00.774Z,11.81
2023-06-05T05:24:27.238Z,11.80
2023-06-05T05:26:53.878Z,11.81
2023-06-05T05:29:20.468Z,11.82
2023-06-05T05:31:47.036Z,11.86
2023-06-05T05:34:13.609Z,12.24
2023-06-05T05:36:39.983Z,13.37
2023-06-05T05:39:08.227Z,14.84
2023-06-05T05:41:36.107Z,15.75
2023-06-05T05:44:02.571Z,16.45
2023-06-05T05:46:28.963Z,16.73
2023-06-05T05:48:56.049Z,17.10
2023-06-05T05:51:22.616Z,17.37
2023-06-05T05:53:49.026Z,17.67
2023-06-05T05:56:15.700Z,17.91
2023-06-05T05:58:42.177Z,18.37
2023-06-05T06:01:08.831Z,18.64
2023-06-05T06:03:38.174Z,18.46
2023-06-05T06:06:08.113Z,18.29
2023-06-05T06:08:36.121Z,18.06
2023-06-05T06:11:05.227Z,17.98
2023-06-05T06:13:31.758Z,18.20
2023-06-05T06:15:58.212Z,18.07
2023-06-05T06:18:24.750Z,18.31
2023-06-05T06:20:51.163Z,18.17
2023-06-05T06:23:17.769Z,18.13
2023-06-05T06:25:44.802Z,18.48
2023-06-05T06:28:11.289Z,19.07
2023-06-05T06:30:37.781Z,19.65
2023-06-05T06:33:05.271Z,19.75
2023-06-05T06:35:35.904Z,20.08
2023-06-05T06:38:02.454Z,20.12
2023-06-05T06:40:30.252Z,19.88
2023-06-05T06:42:56.941Z,19.50
2023-06-05T06:45:23.607Z,19.17
2023-06-05T06:48:05.840Z,19.36
2023-06-05T06:50:33.754Z,19.22
2023-06-05T06:53:00.229Z,19.45
2023-06-05T06:55:26.892Z,19.52
2023-06-05T06:57:53.527Z,19.76
2023-06-05T07:00:21.476Z,20.15
2023-06-05T07:02:48.471Z,20.45
2023-06-05T07:05:15.717Z,20.47
2023-06-05T07:07:42.446Z,20.30
2023-06-05T07:10:09.484Z,19.95
2023-06-05T07:12:35.936Z,19.23
2023-06-05T07:15:02.557Z,18.79
2023-06-05T07:17:31.136Z,18.43
2023-06-05T07:19:58.573Z,18.33
2023-06-05T07:22:30.396Z,18.07
2023-06-05T07:24:56.913Z,17.95
2023-06-05T07:27:23.957Z,17.99
2023-06-05T07:29:51.297Z,17.80
2023-06-05T07:32:19.314Z,17.82
2023-06-05T07:34:46.206Z,17.78
2023-06-05T07:37:12.653Z,17.76
2023-06-05T07:39:39.130Z,17.84
2023-06-05T07:42:06.860Z,17.91
2023-06-05T07:44:33.334Z,18.00
2023-06-05T07:46:59.798Z,18.07
2023-06-05T07:49:26.326Z,18.11
2023-06-05T07:51:52.739Z,18.00
2023-06-05T07:54:20.467Z,18.01
2023-06-05T07:56:50.099Z,17.92
2023-06-05T07:59:17.758Z,18.04
2023-06-05T08:01:44.594Z,17.93
2023-06-05T08:04:14.258Z,17.91
2023-06-05T08:06:41.392Z,18.28
2023-06-05T08:09:12.123Z,18.60
2023-06-05T08:11:44.880Z,18.73
2023-06-05T08:14:11.387Z,18.83
2023-06-05T08:16:37.967Z,18.87
2023-06-05T08:19:05.114Z,18.93
2023-06-05T08:21:32.029Z,19.01
2023-06-05T08:23:58.865Z,19.07
2023-06-05T08:26:26.923Z,19.20
2023-06-05T08:28:53.583Z,19.35
2023-06-05T08:31:20.304Z,19.43
2023-06-05T08:33:46.908Z,19.44
2023-06-05T08:36:13.554Z,19.47
2023-06-05T08:38:42.112Z,19.60
2023-06-05T08:41:11.764Z,19.80
2023-06-05T08:43:39.790Z,19.88
2023-06-05T08:46:09.009Z,19.87
2023-06-05T08:48:43.162Z,20.06
2023-06-05T08:51:14.697Z,20.26
2023-06-05T08:53:45.368Z,20.49
2023-06-05T08:56:12.315Z,20.68
2023-06-05T08:58:39.148Z,20.66
2023-06-05T09:01:05.899Z,20.71
2023-06-05T09:03:34.366Z,20.57
2023-06-05T09:06:01.994Z,20.59
2023-06-05T09:08:33.878Z,20.77
2023-06-05T09:11:22.849Z,21.06
2023-06-05T09:13:49.598Z,21.27
2023-06-05T09:16:20.206Z,21.47
2023-06-05T09:18:58.015Z,21.51
2023-06-05T09:21:33.496Z,21.68
2023-06-05T09:24:15.222Z,21.84
2023-06-05T09:27:01.688Z,21.91
2023-06-05T09:29:33.471Z,21.91
2023-06-05T09:32:05.102Z,22.02
2023-06-05T09:34:34.293Z,22.29
2023-06-05T09:37:02.684Z,22.49
2023-06-05T09:39:30.877Z,22.60
2023-06-05T09:41:58.618Z,22.52
2023-06-05T09:44:26.464Z,22.75
2023-06-05T09:46:57.068Z,22.69
2023-06-05T09:49:30.242Z,22.98
2023-06-05T09:51:58.938Z,23.02
2023-06-05T09:54:30.938Z,23.14
2023-06-05T09:57:04.084Z,23.12
2023-06-05T09:59:33.384Z,23.18
2023-06-05T10:02:07.839Z,23.30
2023-06-05T10:04:47.221Z,23.50
2023-06-05T10:07:14.600Z,23.69
2023-06-05T10:09:42.455Z,23.79
2023-06-05T10:12:10.112Z,23.90
2023-06-05T10:14:37.712Z,24.07
2023-06-05T10:17:04.492Z,23.95
2023-06-05T10:19:31.211Z,23.92
2023-06-05T10:21:57.762Z,23.92
2023-06-05T10:24:35.986Z,24.14
2023-06-05T10:27:37.031Z,24.25
2023-06-05T10:30:21.835Z,24.14
2023-06-05T10:33:21.748Z,24.23
2023-06-05T10:35:54.170Z,24.57
2023-06-05T10:38:27.124Z,24.67
2023-06-05T10:40:55.728Z,24.69
2023-06-05T10:43:34.133Z,25.01
2023-06-05T10:49:10.489Z,25.12
2023-06-05T10:51:42.038Z,25.20
2023-06-05T10:54:09.537Z,25.06
2023-06-05T10:57:06.701Z,25.29
2023-06-05T10:59:35.465Z,25.13
2023-06-05T11:02:17.747Z,25.22
2023-06-05T11:04:47.711Z,25.44
2023-06-05T11:07:18.995Z,25.64
2023-06-05T11:10:21.682Z,25.98
2023-06-05T11:12:48.413Z,26.02
2023-06-05T11:15:24.216Z,26.16
2023-06-05T11:17:51.398Z,26.21
2023-06-05T11:20:23.918Z,26.49
2023-06-05T11:22:53.405Z,26.42
2023-06-05T11:25:22.201Z,26.69
2023-06-05T11:27:51.106Z,26.83
2023-06-05T11:30:35.000Z,27.07
2023-06-05T11:33:13.682Z,27.06
2023-06-05T11:35:42.561Z,27.18
2023-06-05T11:38:10.930Z,26.96
2023-06-05T11:40:38.238Z,27.05
2023-06-05T11:43:06.306Z,27.41
2023-06-05T11:45:42.049Z,27.52
2023-06-05T11:48:12.373Z,27.50
2023-06-05T11:50:41.490Z,27.54
2023-06-05T11:53:12.622Z,27.63
2023-06-05T11:55:56.092Z,27.63
2023-06-05T11:58:23.325Z,27.74
2023-06-05T12:00:50.576Z,28.04
2023-06-05T12:03:23.354Z,28.03
2023-06-05T12:05:50.608Z,28.18
2023-06-05T12:08:28.704Z,28.06
2023-06-05T12:10:57.555Z,27.99
2023-06-05T12:13:24.019Z,27.35
2023-06-05T12:16:00.320Z,27.31
2023-06-05T12:18:35.763Z,27.66
2023-06-05T12:21:02.828Z,27.78
2023-06-05T12:23:33.761Z,27.98
2023-06-05T12:26:04.932Z,28.18
2023-06-05T12:28:32.442Z,28.34
2023-06-05T12:30:59.514Z,28.37
2023-06-05T12:33:26.086Z,28.40
2023-06-05T12:36:11.612Z,28.51
2023-06-05T12:38:39.675Z,28.36
2023-06-05T12:41:09.193Z,28.04
2023-06-05T12:43:36.625Z,28.39
2023-06-05T12:46:03.542Z,28.49
2023-06-05T12:48:30.170Z,28.31
2023-06-05T12:50:57.610Z,28.20
2023-06-05T12:53:24.234Z,28.21
2023-06-05T12:55:51.099Z,28.50
2023-06-05T12:58:17.971Z,28.40
2023-06-05T13:00:45.351Z,28.25
2023-06-05T13:03:13.510Z,28.38
2023-06-05T13:05:40.506Z,28.17
2023-06-05T13:08:07.392Z,28.27
2023-06-05T13:10:33.834Z,28.62
2023-06-05T13:13:00.436Z,28.56
2023-06-05T13:15:26.943Z,28.53
2023-06-05T13:17:53.426Z,28.64
2023-06-05T13:20:19.939Z,28.65
2023-06-05T13:22:46.434Z,28.35
2023-06-05T13:25:14.024Z,28.56
2023-06-05T13:27:41.106Z,28.27
2023-06-05T13:30:08.351Z,28.21
2023-06-05T13:32:35.761Z,28.41
2023-06-05T13:35:02.320Z,28.54
2023-06-05T13:37:29.160Z,28.43
2023-06-05T13:39:55.745Z,28.53
2023-06-05T13:42:22.175Z,28.87
2023-06-05T13:44:48.613Z,29.06
2023-06-05T13:47:15.120Z,28.93
2023-06-05T13:49:42.731Z,28.63
2023-06-05T13:52:09.205Z,28.41
2023-06-05T13:54:35.628Z,28.22
2023-06-05T13:57:02.221Z,27.90
2023-06-05T13:59:28.672Z,27.85
2023-06-05T14:01:55.150Z,28.16
2023-06-05T14:04:22.012Z,28.53
2023-06-05T14:06:48.505Z,28.46
2023-06-05T14:09:14.984Z,28.75
2023-06-05T14:11:45.672Z,28.96
2023-06-05T14:14:12.837Z,29.02
2023-06-05T14:16:39.572Z,28.91
2023-06-05T14:19:06.302Z,28.58
2023-06-05T14:21:32.748Z,28.46
2023-06-05T14:23:59.221Z,28.64
2023-06-05T14:26:26.652Z,28.71
2023-06-05T14:28:53.132Z,28.77
2023-06-05T14:31:19.725Z,28.37
2023-06-05T14:33:47.759Z,28.00
2023-06-05T14:36:16.302Z,27.92
2023-06-05T14:38:42.783Z,28.21
2023-06-05T14:41:09.338Z,28.53
2023-06-05T14:43:36.299Z,28.51
2023-06-05T14:46:03.398Z,28.47
2023-06-05T14:48:30.630Z,28.30
2023-06-05T14:50:57.152Z,28.66
2023-06-05T14:53:25.924Z,28.61
2023-06-05T14:55:52.394Z,28.19
2023-06-05T14:58:18.876Z,28.21
2023-06-05T15:00:46.966Z,28.43
2023-06-05T15:03:13.636Z,28.03
2023-06-05T15:05:40.277Z,27.63
2023-06-05T15:08:07.291Z,27.48
2023-06-05T15:10:33.793Z,27.49
2023-06-05T15:13:00.336Z,27.82
2023-06-05T15:15:27.064Z,27.76
2023-06-05T15:17:53.661Z,27.68
2023-06-05T15:20:23.980Z,27.62
2023-06-05T15:23:00.458Z,27.67
2023-06-05T15:25:36.018Z,27.82
2023-06-05T15:28:03.238Z,27.52
2023-06-05T15:30:29.741Z,27.29
2023-06-05T15:32:56.360Z,27.41
2023-06-05T15:35:22.852Z,27.30
2023-06-05T15:37:49.393Z,27.23
2023-06-05T15:40:16.117Z,27.10
2023-06-05T15:42:44.426Z,26.82
2023-06-05T15:45:14.133Z,26.51
2023-06-05T15:47:41.187Z,26.64
2023-06-05T15:50:08.819Z,26.68
2023-06-05T15:52:36.748Z,26.71
2023-06-05T15:55:03.970Z,26.77
2023-06-05T15:57:30.509Z,26.76
2023-06-05T15:59:57.570Z,26.71
2023-06-05T16:02:24.216Z,26.73
2023-06-05T16:04:50.930Z,26.83
2023-06-05T16:07:17.432Z,26.72
2023-06-05T16:09:44.490Z,26.65
2023-06-05T16:12:11.960Z,26.36
2023-06-05T16:14:38.445Z,26.39
2023-06-05T16:17:08.178Z,26.43
2023-06-05T16:19:34.641Z,26.30
2023-06-05T16:22:01.120Z,26.25
2023-06-05T16:24:27.695Z,26.25
2023-06-05T16:26:54.237Z,26.15
2023-06-05T16:29:21.493Z,26.13
2023-06-05T16:31:49.067Z,25.94
2023-06-05T16:34:15.758Z,26.04
2023-06-05T16:36:42.479Z,25.94
2023-06-05T16:39:11.141Z,25.91
2023-06-05T16:41:38.297Z,26.20
2023-06-05T16:44:04.870Z,26.20
2023-06-05T16:46:31.856Z,26.37
2023-06-05T16:48:58.540Z,26.04
2023-06-05T16:51:25.087Z,25.96
2023-06-05T16:53:52.239Z,25.89
2023-06-05T16:56:18.882Z,25.84
2023-06-05T16:58:45.488Z,25.74
2023-06-05T17:01:12.414Z,25.85
2023-06-05T17:03:39.600Z,25.68
2023-06-05T17:06:06.871Z,25.71
2023-06-05T17:08:34.366Z,25.59
2023-06-05T17:11:00.994Z,25.35
2023-06-05T17:13:27.505Z,24.94
2023-06-05T17:15:54.001Z,25.04
2023-06-05T17:18:20.688Z,24.90
2023-06-05T17:20:47.181Z,25.19
2023-06-05T17:23:13.768Z,25.26
2023-06-05T17:25:40.355Z,25.27
2023-06-05T17:28:07.540Z,25.33
2023-06-05T17:30:34.021Z,25.16
2023-06-05T17:33:00.702Z,25.09
2023-06-05T17:35:27.317Z,24.97
2023-06-05T17:37:53.800Z,24.63
2023-06-05T17:40:20.278Z,24.49
2023-06-05T17:42:46.753Z,24.40
2023-06-05T17:45:13.207Z,24.50
2023-06-05T17:47:39.864Z,24.26
2023-06-05T17:50:07.318Z,24.20
2023-06-05T17:52:33.869Z,24.28
2023-06-05T17:55:00.375Z,24.22
2023-06-05T17:57:26.937Z,24.09
2023-06-05T17:59:53.659Z,23.92
2023-06-05T18:02:20.514Z,23.83
2023-06-05T18:04:47.122Z,23.81
2023-06-05T18:07:13.824Z,23.73
2023-06-05T18:09:40.330Z,23.56
2023-06-05T18:12:08.313Z,23.57
2023-06-05T18:14:34.855Z,22.86
2023-06-05T18:17:01.427Z,22.25
2023-06-05T18:19:27.987Z,21.83
2023-06-05T18:21:55.078Z,21.34
2023-06-05T18:24:21.524Z,21.06
2023-06-05T18:26:48.064Z,20.77
2023-06-05T18:29:14.602Z,20.41
2023-06-05T18:31:42.481Z,20.32
2023-06-05T18:34:09.008Z,20.18
2023-06-05T18:36:35.774Z,20.04
2023-06-05T18:39:02.169Z,19.84
2023-06-05T18:41:28.617Z,19.65
2023-06-05T18:43:55.000Z,19.49
2023-06-05T18:46:21.393Z,19.48
2023-06-05T18:48:47.903Z,19.28
2023-06-05T18:51:14.436Z,19.18
2023-06-05T18:53:42.137Z,19.06
2023-06-05T18:56:08.575Z,19.07
2023-06-05T18:58:35.721Z,18.99
2023-06-05T19:01:02.165Z,18.94
2023-06-05T19:03:28.646Z,18.83
2023-06-05T19:05:55.215Z,18.79
2023-06-05T19:08:21.731Z,18.76
2023-06-05T19:10:48.234Z,18.69
2023-06-05T19:13:14.660Z,18.61
2023-06-05T19:15:41.724Z,18.50
2023-06-05T19:18:08.287Z,18.40
2023-06-05T19:20:35.473Z,18.35
2023-06-05T19:23:01.986Z,18.27
2023-06-05T19:25:28.428Z,18.20
2023-06-05T19:27:54.912Z,18.11
2023-06-05T19:30:21.371Z,18.02
2023-06-05T19:32:48.158Z,17.92
2023-06-05T19:35:14.860Z,17.89
2023-06-05T19:37:43.586Z,17.86
2023-06-05T19:40:10.284Z,17.77
2023-06-05T19:42:36.776Z,17.66
2023-06-05T19:45:03.410Z,17.48
2023-06-05T19:47:29.947Z,17.43
2023-06-05T19:49:56.414Z,17.39
2023-06-05T19:52:23.830Z,17.32
2023-06-05T19:54:50.561Z,17.23
2023-06-05T19:57:17.008Z,17.12
2023-06-05T19:59:45.278Z,17.05
2023-06-05T20:02:13.741Z,17.02
2023-06-05T20:04:40.456Z,16.94
2023-06-05T20:07:07.036Z,16.87
2023-06-05T20:09:33.514Z,16.76
2023-06-05T20:12:00.006Z,16.71
2023-06-05T20:14:26.574Z,16.63
2023-06-05T20:16:53.266Z,16.57
2023-06-05T20:19:19.717Z,16.52
2023-06-05T20:21:46.556Z,16.47
2023-06-05T20:24:12.993Z,16.41
2023-06-05T20:26:39.521Z,16.32
2023-06-05T20:29:10.580Z,16.27
2023-06-05T20:31:37.478Z,16.17
2023-06-05T20:34:04.437Z,16.16
2023-06-05T20:36:35.240Z,16.13
2023-06-05T20:39:02.106Z,15.99
2023-06-05T20:41:29.388Z,15.86
2023-06-05T20:43:56.126Z,15.79
2023-06-05T20:46:23.321Z,15.75
2023-06-05T20:48:53.299Z,15.72
2023-06-05T20:51:22.054Z,15.62
2023-06-05T20:53:49.763Z,15.53
2023-06-05T20:56:36.596Z,15.39
2023-06-05T20:59:03.001Z,15.36
2023-06-05T21:01:30.609Z,15.29
2023-06-05T21:03:57.178Z,15.22
2023-06-05T21:06:24.876Z,15.16
2023-06-05T21:08:51.405Z,15.09
2023-06-05T21:11:18.023Z,14.98
2023-06-05T21:13:44.407Z,14.91
2023-06-05T21:16:10.946Z,14.85
2023-06-05T21:18:37.440Z,14.79
2023-06-05T21:21:04.032Z,14.68
2023-06-05T21:23:30.734Z,14.66
2023-06-05T21:25:57.249Z,14.56
2023-06-05T21:28:24.024Z,14.51
2023-06-05T21:30:55.423Z,14.40
2023-06-05T21:33:21.960Z,14.36
2023-06-05T21:35:48.429Z,14.29
2023-06-05T21:38:14.820Z,14.25
2023-06-05T21:40:41.257Z,14.17
2023-06-05T21:43:07.973Z,14.13
2023-06-05T21:45:34.529Z,14.07
2023-06-05T21:48:01.025Z,14.00
2023-06-05T21:50:27.588Z,13.99
2023-06-05T21:52:54.038Z,13.92
2023-06-05T21:55:20.547Z,13.89
2023-06-05T21:57:47.022Z,13.83
2023-06-05T22:00:15.110Z,13.81
2023-06-05T22:02:41.806Z,13.76
2023-06-05T22:05:08.810Z,13.71
2023-06-05T22:07:39.608Z,13.66
2023-06-05T22:10:07.060Z,13.57
2023-06-05T22:12:35.247Z,13.58
2023-06-05T22:15:05.458Z,13.54
2023-06-05T22:17:33.010Z,13.49
2023-06-05T22:20:04.405Z,13.43
2023-06-05T22:22:30.830Z,13.45
2023-06-05T22:24:58.220Z,13.42
2023-06-05T22:27:25.154Z,13.37
2023-06-05T22:29:52.396Z,13.29
2023-06-05T22:32:21.809Z,13.27
2023-06-05T22:34:50.570Z,13.19
2023-06-05T22:37:17.850Z,13.16
2023-06-05T22:39:44.318Z,13.11
2023-06-05T22:42:11.004Z,13.12
2023-06-05T22:44:37.499Z,13.09
2023-06-05T22:47:04.305Z,13.02
2023-06-05T22:49:30.853Z,12.96
2023-06-05T22:51:58.136Z,12.95
2023-06-05T22:54:24.725Z,12.92
2023-06-05T22:56:51.882Z,12.90
2023-06-05T22:59:18.480Z,12.88
2023-06-05T23:01:47.242Z,12.85
2023-06-05T23:04:14.209Z,12.82
2023-06-05T23:06:42.238Z,12.77
2023-06-05T23:09:09.465Z,12.72
2023-06-05T23:11:35.991Z,12.69
2023-06-05T23:14:02.566Z,12.67
2023-06-05T23:16:29.109Z,12.63
2023-06-05T23:18:55.638Z,12.60
2023-06-05T23:21:22.051Z,12.59
2023-06-05T23:23:48.519Z,12.59
2023-06-05T23:26:15.284Z,12.53
2023-06-05T23:28:41.682Z,12.51
2023-06-05T23:31:08.295Z,12.52
2023-06-05T23:33:34.904Z,12.48
2023-06-05T23:36:01.435Z,12.42
2023-06-05T23:38:27.940Z,12.38
2023-06-05T23:40:54.401Z,12.39
2023-06-05T23:43:20.901Z,12.39
2023-06-05T23:45:47.374Z,12.34
2023-06-05T23:48:13.841Z,12.27
2023-06-05T23:50:40.523Z,12.22
2023-06-05T23:53:07.056Z,12.22
2023-06-05T23:55:33.942Z,12.18
2023-06-05T23:58:00.533Z,12.15
